createdAt,value
2022-11-15T00:00:58.279Z,1002.74
2022-11-15T00:01:58.375Z,1002.73
2022-11-15T00:02:58.319Z,1002.76
2022-11-15T00:03:58.265Z,1002.76
2022-11-15T00:04:58.236Z,1002.70
2022-11-15T00:05:58.235Z,1002.68
2022-11-15T00:06:58.268Z,1002.67
2022-11-15T00:07:58.241Z,1002.68
2022-11-15T00:08:58.256Z,1002.65
2022-11-15T00:09:58.196Z,1002.61
2022-11-15T00:10:58.177Z,1002.56
2022-11-15T00:11:58.166Z,1002.55
2022-11-15T00:12:58.156Z,1002.59
2022-11-15T00:13:58.196Z,1002.54
2022-11-15T00:14:58.126Z,1002.62
2022-11-15T00:15:58.157Z,1002.58
2022-11-15T00:16:58.115Z,1002.57
2022-11-15T00:17:58.136Z,1002.57
2022-11-15T00:18:58.136Z,1002.56
2022-11-15T00:19:58.076Z,1002.58
2022-11-15T00:20:58.067Z,1002.51
2022-11-15T00:21:58.056Z,1002.55
2022-11-15T00:22:58.057Z,1002.52
2022-11-15T00:23:58.036Z,1002.48
2022-11-15T00:24:58.083Z,1002.48
2022-11-15T00:25:58.036Z,1002.56
2022-11-15T00:26:58.013Z,1002.51
2022-11-15T00:27:58.002Z,1002.50
2022-11-15T00:28:57.986Z,1002.52
2022-11-15T00:29:57.966Z,1002.53
2022-11-15T00:30:57.993Z,1002.54
2022-11-15T00:31:57.947Z,1002.55
2022-11-15T00:32:57.945Z,1002.53
2022-11-15T00:33:57.925Z,1002.51
2022-11-15T00:34:57.922Z,1002.50
2022-11-15T00:35:57.955Z,1002.53
2022-11-15T00:36:57.896Z,1002.50
2022-11-15T00:37:57.887Z,1002.47
2022-11-15T00:38:57.875Z,1002.49
2022-11-15T00:39:57.855Z,1002.47
2022-11-15T00:40:57.894Z,1002.45
2022-11-15T00:41:57.841Z,1002.42
2022-11-15T00:42:57.835Z,1002.45
2022-11-15T00:43:57.814Z,1002.42
2022-11-15T00:44:57.814Z,1002.45
2022-11-15T00:45:57.796Z,1002.40
2022-11-15T00:46:57.825Z,1002.43
2022-11-15T00:47:57.776Z,1002.40
2022-11-15T00:48:57.774Z,1002.36
2022-11-15T00:49:57.762Z,1002.42
2022-11-15T00:50:57.747Z,1002.41
2022-11-15T00:51:57.743Z,1002.43
2022-11-15T00:52:57.773Z,1002.43
2022-11-15T00:53:57.713Z,1002.39
2022-11-15T00:54:57.707Z,1002.38
2022-11-15T00:55:57.684Z,1002.36
2022-11-15T00:56:57.674Z,1002.37
2022-11-15T00:57:57.694Z,1002.34
2022-11-15T00:58:57.704Z,1002.34
2022-11-15T00:59:57.644Z,1002.35
2022-11-15T01:00:57.674Z,1002.33
2022-11-15T01:01:57.622Z,1002.33
2022-11-15T01:02:57.644Z,1002.29
2022-11-15T01:04:01.220Z,1002.28
2022-11-15T01:04:57.603Z,1002.29
2022-11-15T01:05:57.583Z,1002.30
2022-11-15T01:06:57.607Z,1002.31
2022-11-15T01:07:57.563Z,1002.31
2022-11-15T01:08:57.555Z,1002.33
2022-11-15T01:09:57.533Z,1002.30
2022-11-15T01:10:57.534Z,1002.30
2022-11-15T01:11:57.541Z,1002.34
2022-11-15T01:12:57.603Z,1002.36
2022-11-15T01:13:57.504Z,1002.29
2022-11-15T01:14:57.494Z,1002.29
2022-11-15T01:15:57.514Z,1002.35
2022-11-15T01:16:57.464Z,1002.32
2022-11-15T01:17:57.453Z,1002.37
2022-11-15T01:18:57.442Z,1002.36
2022-11-15T01:19:57.452Z,1002.40
2022-11-15T01:20:57.423Z,1002.40
2022-11-15T01:21:57.404Z,1002.40
2022-11-15T01:22:57.403Z,1002.40
2022-11-15T01:23:57.432Z,1002.40
2022-11-15T01:24:57.382Z,1002.38
2022-11-15T01:25:57.393Z,1002.41
2022-11-15T01:26:57.353Z,1002.41
2022-11-15T01:27:57.341Z,1002.37
2022-11-15T01:28:57.341Z,1002.34
2022-11-15T01:29:57.324Z,1002.33
2022-11-15T01:30:57.312Z,1002.35
2022-11-15T01:31:57.321Z,1002.35
2022-11-15T01:32:57.292Z,1002.30
2022-11-15T01:33:57.362Z,1002.28
2022-11-15T01:34:57.272Z,1002.26
2022-11-15T01:35:57.253Z,1002.26
2022-11-15T01:36:57.241Z,1002.24
2022-11-15T01:37:57.232Z,1002.25
2022-11-15T01:38:57.235Z,1002.24
2022-11-15T01:39:57.241Z,1002.28
2022-11-15T01:40:57.233Z,1002.21
2022-11-15T01:41:57.194Z,1002.25
2022-11-15T01:42:57.184Z,1002.23
2022-11-15T01:43:57.161Z,1002.25
2022-11-15T01:44:57.174Z,1002.22
2022-11-15T01:45:57.172Z,1002.20
2022-11-15T01:46:57.142Z,1002.22
2022-11-15T01:47:57.129Z,1002.20
2022-11-15T01:48:57.121Z,1002.16
2022-11-15T01:49:57.131Z,1002.13
2022-11-15T01:50:57.093Z,1002.12
2022-11-15T01:51:57.081Z,1002.11
2022-11-15T01:52:57.072Z,1002.07
2022-11-15T01:53:57.124Z,1002.04
2022-11-15T01:54:57.084Z,1002.01
2022-11-15T01:55:57.041Z,1002.03
2022-11-15T01:56:57.030Z,1002.07
2022-11-15T01:57:57.080Z,1002.11
2022-11-15T01:58:57.015Z,1002.00
2022-11-15T01:59:56.991Z,1002.05
2022-11-15T02:00:57.048Z,1002.05
2022-11-15T02:01:56.984Z,1002.05
2022-11-15T02:02:56.971Z,1002.03
2022-11-15T02:03:59.671Z,1002.04
2022-11-15T02:04:57.139Z,1002.02
2022-11-15T02:05:56.932Z,1002.04
2022-11-15T02:06:56.993Z,1002.03
2022-11-15T02:07:56.910Z,1002.02
2022-11-15T02:08:56.934Z,1002.02
2022-11-15T02:09:56.893Z,1001.98
2022-11-15T02:10:56.880Z,1001.99
2022-11-15T02:11:56.869Z,1001.93
2022-11-15T02:12:56.887Z,1001.96
2022-11-15T02:13:56.841Z,1001.95
2022-11-15T02:14:56.830Z,1001.94
2022-11-15T02:16:01.718Z,1001.93
2022-11-15T02:16:57.810Z,1001.90
2022-11-15T02:17:56.851Z,1001.91
2022-11-15T02:18:56.791Z,1001.81
2022-11-15T02:19:56.777Z,1001.83
2022-11-15T02:20:56.769Z,1001.85
2022-11-15T02:21:56.800Z,1001.83
2022-11-15T02:22:56.750Z,1001.81
2022-11-15T02:23:56.729Z,1001.85
2022-11-15T02:24:56.742Z,1001.72
2022-11-15T02:25:56.710Z,1001.78
2022-11-15T02:26:56.706Z,1001.77
2022-11-15T02:27:56.749Z,1001.72
2022-11-15T02:28:56.689Z,1001.82
2022-11-15T02:29:56.669Z,1001.79
2022-11-15T02:30:56.659Z,1001.79
2022-11-15T02:31:56.679Z,1001.75
2022-11-15T02:32:56.640Z,1001.78
2022-11-15T02:33:56.621Z,1001.76
2022-11-15T02:34:56.650Z,1001.79
2022-11-15T02:35:56.599Z,1001.75
2022-11-15T02:36:56.588Z,1001.74
2022-11-15T02:37:56.580Z,1001.74
2022-11-15T02:38:56.659Z,1001.73
2022-11-15T02:39:56.559Z,1001.65
2022-11-15T02:40:56.599Z,1001.67
2022-11-15T02:41:56.538Z,1001.66
2022-11-15T02:42:56.530Z,1001.63
2022-11-15T02:43:56.509Z,1001.64
2022-11-15T02:44:56.581Z,1001.67
2022-11-15T02:45:56.497Z,1001.62
2022-11-15T02:46:56.491Z,1001.65
2022-11-15T02:47:56.468Z,1001.68
2022-11-15T02:48:56.469Z,1001.66
2022-11-15T02:49:56.450Z,1001.71
2022-11-15T02:50:56.479Z,1001.71
2022-11-15T02:51:56.428Z,1001.71
2022-11-15T02:52:56.418Z,1001.74
2022-11-15T02:53:56.399Z,1001.69
2022-11-15T02:54:56.399Z,1001.68
2022-11-15T02:55:56.429Z,1001.71
2022-11-15T02:56:56.406Z,1001.74
2022-11-15T02:57:56.357Z,1001.68
2022-11-15T02:58:56.356Z,1001.70
2022-11-15T02:59:56.339Z,1001.71
2022-11-15T03:00:56.415Z,1001.76
2022-11-15T03:01:56.336Z,1001.81
2022-11-15T03:02:56.341Z,1001.71
2022-11-15T03:03:56.288Z,1001.69
2022-11-15T03:04:56.288Z,1001.75
2022-11-15T03:05:56.297Z,1001.70
2022-11-15T03:06:56.351Z,1001.71
2022-11-15T03:08:01.831Z,1001.69
2022-11-15T03:08:57.247Z,1001.72
2022-11-15T03:09:56.257Z,1001.70
2022-11-15T03:10:56.247Z,1001.68
2022-11-15T03:11:56.226Z,1001.65
2022-11-15T03:12:56.197Z,1001.63
2022-11-15T03:13:56.188Z,1001.66
2022-11-15T03:14:56.186Z,1001.62
2022-11-15T03:15:56.187Z,1001.67
2022-11-15T03:16:56.192Z,1001.65
2022-11-15T03:17:56.140Z,1001.64
2022-11-15T03:18:56.137Z,1001.64
2022-11-15T03:19:56.117Z,1001.68
2022-11-15T03:20:56.116Z,1001.60
2022-11-15T03:21:56.096Z,1001.60
2022-11-15T03:22:56.137Z,1001.61
2022-11-15T03:23:56.078Z,1001.63
2022-11-15T03:24:56.067Z,1001.63
2022-11-15T03:25:56.070Z,1001.64
2022-11-15T03:26:56.046Z,1001.60
2022-11-15T03:27:56.065Z,1001.63
2022-11-15T03:28:56.027Z,1001.61
2022-11-15T03:29:56.016Z,1001.61
2022-11-15T03:30:56.006Z,1001.63
2022-11-15T03:31:55.986Z,1001.65
2022-11-15T03:32:56.006Z,1001.66
2022-11-15T03:33:55.975Z,1001.63
2022-11-15T03:34:55.969Z,1001.61
2022-11-15T03:35:55.947Z,1001.60
2022-11-15T03:36:55.970Z,1001.61
2022-11-15T03:37:55.985Z,1001.60
2022-11-15T03:38:55.926Z,1001.58
2022-11-15T03:39:55.966Z,1001.62
2022-11-15T03:40:55.896Z,1001.62
2022-11-15T03:41:55.887Z,1001.65
2022-11-15T03:42:55.877Z,1001.61
2022-11-15T03:43:55.856Z,1001.63
2022-11-15T03:44:55.888Z,1001.63
2022-11-15T03:45:55.836Z,1001.61
2022-11-15T03:46:55.835Z,1001.55
2022-11-15T03:47:55.847Z,1001.55
2022-11-15T03:48:55.818Z,1001.55
2022-11-15T03:49:55.797Z,1001.54
2022-11-15T03:50:55.788Z,1001.52
2022-11-15T03:51:55.806Z,1001.51
2022-11-15T03:52:55.766Z,1001.53
2022-11-15T03:53:55.756Z,1001.55
2022-11-15T03:54:55.777Z,1001.50
2022-11-15T03:55:55.737Z,1001.50
2022-11-15T03:56:55.724Z,1001.46
2022-11-15T03:57:55.755Z,1001.44
2022-11-15T03:58:55.706Z,1001.44
2022-11-15T03:59:55.687Z,1001.45
2022-11-15T04:00:55.732Z,1001.46
2022-11-15T04:01:55.665Z,1001.48
2022-11-15T04:02:55.667Z,1001.47
2022-11-15T04:03:55.675Z,1001.44
2022-11-15T04:04:55.666Z,1001.43
2022-11-15T04:05:55.654Z,1001.46
2022-11-15T04:06:55.673Z,1001.49
2022-11-15T04:07:55.604Z,1001.44
2022-11-15T04:08:55.596Z,1001.42
2022-11-15T04:09:55.586Z,1001.46
2022-11-15T04:10:55.634Z,1001.44
2022-11-15T04:11:55.592Z,1001.39
2022-11-15T04:12:55.546Z,1001.40
2022-11-15T04:13:55.594Z,1001.39
2022-11-15T04:14:55.526Z,1001.37
2022-11-15T04:15:55.536Z,1001.39
2022-11-15T04:16:55.553Z,1001.36
2022-11-15T04:17:55.496Z,1001.41
2022-11-15T04:18:55.486Z,1001.34
2022-11-15T04:19:55.477Z,1001.38
2022-11-15T04:20:55.475Z,1001.34
2022-11-15T04:21:55.454Z,1001.36
2022-11-15T04:22:55.476Z,1001.34
2022-11-15T04:23:55.426Z,1001.31
2022-11-15T04:24:55.427Z,1001.30
2022-11-15T04:25:55.406Z,1001.32
2022-11-15T04:26:55.406Z,1001.33
2022-11-15T04:27:55.386Z,1001.33
2022-11-15T04:28:55.426Z,1001.38
2022-11-15T04:29:55.367Z,1001.32
2022-11-15T04:30:55.355Z,1001.36
2022-11-15T04:31:55.375Z,1001.34
2022-11-15T04:32:55.336Z,1001.37
2022-11-15T04:33:55.326Z,1001.35
2022-11-15T04:34:55.337Z,1001.35
2022-11-15T04:35:55.306Z,1001.35
2022-11-15T04:36:55.294Z,1001.37
2022-11-15T04:37:55.285Z,1001.35
2022-11-15T04:38:55.295Z,1001.34
2022-11-15T04:39:55.286Z,1001.32
2022-11-15T04:40:55.245Z,1001.36
2022-11-15T04:41:55.302Z,1001.33
2022-11-15T04:42:59.475Z,1001.31
2022-11-15T04:43:56.215Z,1001.34
2022-11-15T04:44:55.205Z,1001.31
2022-11-15T04:45:55.197Z,1001.33
2022-11-15T04:46:55.205Z,1001.39
2022-11-15T04:47:55.164Z,1001.35
2022-11-15T04:48:58.535Z,1001.33
2022-11-15T04:49:55.184Z,1001.38
2022-11-15T04:50:55.136Z,1001.35
2022-11-15T04:51:55.123Z,1001.37
2022-11-15T04:52:55.122Z,1001.37
2022-11-15T04:53:55.104Z,1001.39
2022-11-15T04:54:55.094Z,1001.41
2022-11-15T04:55:55.114Z,1001.40
2022-11-15T04:56:55.095Z,1001.38
2022-11-15T04:57:55.094Z,1001.40
2022-11-15T04:58:55.074Z,1001.36
2022-11-15T04:59:55.041Z,1001.35
2022-11-15T05:00:55.130Z,1001.31
2022-11-15T05:01:55.024Z,1001.31
2022-11-15T05:02:55.014Z,1001.33
2022-11-15T05:03:55.002Z,1001.28
2022-11-15T05:04:55.017Z,1001.32
2022-11-15T05:05:54.974Z,1001.33
2022-11-15T05:06:54.979Z,1001.35
2022-11-15T05:07:54.959Z,1001.36
2022-11-15T05:08:54.944Z,1001.34
2022-11-15T05:09:54.965Z,1001.35
2022-11-15T05:10:54.923Z,1001.30
2022-11-15T05:11:54.943Z,1001.37
2022-11-15T05:12:54.914Z,1001.35
2022-11-15T05:13:54.893Z,1001.31
2022-11-15T05:14:54.872Z,1001.36
2022-11-15T05:15:54.871Z,1001.36
2022-11-15T05:16:54.892Z,1001.38
2022-11-15T05:17:54.875Z,1001.33
2022-11-15T05:18:54.833Z,1001.44
2022-11-15T05:19:54.861Z,1001.44
2022-11-15T05:20:54.823Z,1001.43
2022-11-15T05:21:54.805Z,1001.39
2022-11-15T05:22:54.833Z,1001.39
2022-11-15T05:23:54.785Z,1001.38
2022-11-15T05:24:54.773Z,1001.35
2022-11-15T05:25:54.801Z,1001.37
2022-11-15T05:26:54.753Z,1001.36
2022-11-15T05:27:54.775Z,1001.23
2022-11-15T05:28:54.724Z,1001.26
2022-11-15T05:29:54.713Z,1001.24
2022-11-15T05:30:54.712Z,1001.26
2022-11-15T05:31:54.736Z,1001.18
2022-11-15T05:32:54.714Z,1001.19
2022-11-15T05:33:54.697Z,1001.12
2022-11-15T05:34:54.673Z,1001.15
2022-11-15T05:35:54.653Z,1001.17
2022-11-15T05:36:54.673Z,1001.19
2022-11-15T05:37:54.647Z,1001.14
2022-11-15T05:38:54.622Z,1001.20
2022-11-15T05:39:54.613Z,1001.17
2022-11-15T05:40:54.633Z,1001.21
2022-11-15T05:41:54.611Z,1001.22
2022-11-15T05:42:54.574Z,1001.24
2022-11-15T05:43:54.605Z,1001.19
2022-11-15T05:44:54.593Z,1001.21
2022-11-15T05:45:54.550Z,1001.21
2022-11-15T05:46:54.537Z,1001.26
2022-11-15T05:47:54.531Z,1001.24
2022-11-15T05:48:54.548Z,1001.26
2022-11-15T05:49:54.503Z,1001.28
2022-11-15T05:50:54.484Z,1001.26
2022-11-15T05:51:54.482Z,1001.23
2022-11-15T05:52:54.463Z,1001.21
2022-11-15T05:53:54.463Z,1001.22
2022-11-15T05:54:54.483Z,1001.23
2022-11-15T05:55:54.443Z,1001.26
2022-11-15T05:56:54.424Z,1001.24
2022-11-15T05:57:54.413Z,1001.23
2022-11-15T05:58:59.096Z,1001.24
2022-11-15T05:59:55.491Z,1001.22
2022-11-15T06:00:54.382Z,1001.24
2022-11-15T06:01:54.480Z,1001.24
2022-11-15T06:02:54.360Z,1001.32
2022-11-15T06:03:54.380Z,1001.31
2022-11-15T06:04:54.364Z,1001.26
2022-11-15T06:05:54.333Z,1001.26
2022-11-15T06:06:54.382Z,1001.26
2022-11-15T06:07:54.342Z,1001.26
2022-11-15T06:08:54.292Z,1001.24
2022-11-15T06:09:54.289Z,1001.28
2022-11-15T06:10:54.288Z,1001.24
2022-11-15T06:11:54.262Z,1001.19
2022-11-15T06:12:54.253Z,1001.26
2022-11-15T06:13:54.293Z,1001.19
2022-11-15T06:14:54.233Z,1001.23
2022-11-15T06:15:54.273Z,1001.21
2022-11-15T06:16:54.214Z,1001.14
2022-11-15T06:17:54.205Z,1001.18
2022-11-15T06:18:54.243Z,1001.19
2022-11-15T06:19:54.224Z,1001.20
2022-11-15T06:20:54.173Z,1001.19
2022-11-15T06:21:54.165Z,1001.21
2022-11-15T06:22:54.142Z,1001.24
2022-11-15T06:23:54.173Z,1001.29
2022-11-15T06:24:54.123Z,1001.28
2022-11-15T06:25:54.152Z,1001.25
2022-11-15T06:26:54.093Z,1001.34
2022-11-15T06:27:54.092Z,1001.38
2022-11-15T06:28:54.072Z,1001.35
2022-11-15T06:29:54.074Z,1001.41
2022-11-15T06:30:54.055Z,1001.37
2022-11-15T06:31:54.087Z,1001.42
2022-11-15T06:32:54.063Z,1001.41
2022-11-15T06:33:54.033Z,1001.43
2022-11-15T06:34:54.012Z,1001.45
2022-11-15T06:35:54.010Z,1001.49
2022-11-15T06:36:54.045Z,1001.47
2022-11-15T06:37:53.982Z,1001.47
2022-11-15T06:38:53.972Z,1001.49
2022-11-15T06:39:53.962Z,1001.49
2022-11-15T06:40:53.952Z,1001.48
2022-11-15T06:41:53.980Z,1001.48
2022-11-15T06:42:53.922Z,1001.51
2022-11-15T06:43:53.918Z,1001.47
2022-11-15T06:44:53.901Z,1001.46
2022-11-15T06:45:53.902Z,1001.46
2022-11-15T06:46:53.921Z,1001.46
2022-11-15T06:47:54.013Z,1001.47
2022-11-15T06:48:53.942Z,1001.50
2022-11-15T06:49:53.884Z,1001.52
2022-11-15T06:50:53.830Z,1001.50
2022-11-15T06:51:54.062Z,1001.55
2022-11-15T06:52:56.537Z,1001.54
2022-11-15T06:53:53.801Z,1001.54
2022-11-15T06:54:53.791Z,1001.58
2022-11-15T06:55:55.681Z,1001.55
2022-11-15T06:56:53.784Z,1001.55
2022-11-15T06:57:53.761Z,1001.60
2022-11-15T06:58:53.751Z,1001.60
2022-11-15T06:59:53.742Z,1001.58
2022-11-15T07:00:53.749Z,1001.58
2022-11-15T07:01:53.953Z,1001.60
2022-11-15T07:02:53.715Z,1001.54
2022-11-15T07:03:53.701Z,1001.60
2022-11-15T07:04:53.692Z,1001.60
2022-11-15T07:05:53.690Z,1001.57
2022-11-15T07:06:53.715Z,1001.56
2022-11-15T07:07:53.725Z,1001.61
2022-11-15T07:08:53.651Z,1001.55
2022-11-15T07:09:53.649Z,1001.58
2022-11-15T07:10:53.622Z,1001.63
2022-11-15T07:11:53.614Z,1001.64
2022-11-15T07:12:53.604Z,1001.65
2022-11-15T07:13:53.634Z,1001.63
2022-11-15T07:14:53.583Z,1001.63
2022-11-15T07:15:53.571Z,1001.66
2022-11-15T07:16:53.552Z,1001.68
2022-11-15T07:17:53.584Z,1001.66
2022-11-15T07:18:53.542Z,1001.68
2022-11-15T07:19:53.532Z,1001.71
2022-11-15T07:20:53.671Z,1001.73
2022-11-15T07:21:53.509Z,1001.74
2022-11-15T07:22:53.494Z,1001.72
2022-11-15T07:23:53.491Z,1001.79
2022-11-15T07:24:53.472Z,1001.81
2022-11-15T07:25:53.465Z,1001.78
2022-11-15T07:26:53.484Z,1001.81
2022-11-15T07:27:53.441Z,1001.83
2022-11-15T07:28:53.431Z,1001.84
2022-11-15T07:29:53.424Z,1001.80
2022-11-15T07:30:53.402Z,1001.85
2022-11-15T07:31:53.405Z,1001.87
2022-11-15T07:33:00.298Z,1001.84
2022-11-15T07:33:53.385Z,1001.83
2022-11-15T07:34:53.364Z,1001.87
2022-11-15T07:35:53.351Z,1001.89
2022-11-15T07:36:53.374Z,1001.83
2022-11-15T07:37:53.332Z,1001.92
2022-11-15T07:38:53.322Z,1001.88
2022-11-15T07:39:53.312Z,1001.92
2022-11-15T07:40:53.306Z,1001.86
2022-11-15T07:41:53.322Z,1001.89
2022-11-15T07:42:53.273Z,1001.81
2022-11-15T07:43:53.301Z,1001.87
2022-11-15T07:44:53.260Z,1001.85
2022-11-15T07:45:58.597Z,1001.88
2022-11-15T07:46:54.322Z,1001.81
2022-11-15T07:47:53.222Z,1001.87
2022-11-15T07:48:53.212Z,1001.89
2022-11-15T07:49:53.205Z,1001.86
2022-11-15T07:50:53.191Z,1001.89
2022-11-15T07:51:55.869Z,1001.84
2022-11-15T07:52:53.173Z,1001.87
2022-11-15T07:53:53.161Z,1001.90
2022-11-15T07:54:53.141Z,1001.84
2022-11-15T07:55:53.149Z,1001.88
2022-11-15T07:56:53.140Z,1001.90
2022-11-15T07:57:53.495Z,1001.88
2022-11-15T07:58:53.151Z,1001.88
2022-11-15T07:59:53.101Z,1001.88
2022-11-15T08:00:53.087Z,1001.92
2022-11-15T08:01:53.192Z,1001.91
2022-11-15T08:02:53.182Z,1001.91
2022-11-15T08:03:53.073Z,1001.85
2022-11-15T08:04:53.070Z,1001.99
2022-11-15T08:05:53.031Z,1001.97
2022-11-15T08:06:53.100Z,1002.04
2022-11-15T08:07:53.010Z,1001.99
2022-11-15T08:08:54.990Z,1001.97
2022-11-15T08:09:52.981Z,1001.98
2022-11-15T08:10:52.970Z,1001.93
2022-11-15T08:11:55.251Z,1002.01
2022-11-15T08:12:53.000Z,1002.00
2022-11-15T08:13:52.940Z,1002.00
2022-11-15T08:14:52.940Z,1002.00
2022-11-15T08:15:57.515Z,1002.05
2022-11-15T08:16:53.942Z,1001.93
2022-11-15T08:17:52.900Z,1002.00
2022-11-15T08:18:52.952Z,1001.97
2022-11-15T08:19:52.871Z,1001.91
2022-11-15T08:20:52.860Z,1001.92
2022-11-15T08:21:52.862Z,1001.94
2022-11-15T08:22:52.840Z,1001.90
2022-11-15T08:23:52.841Z,1001.94
2022-11-15T08:25:03.318Z,1001.88
2022-11-15T08:25:54.621Z,1001.89
2022-11-15T08:26:52.857Z,1001.91
2022-11-15T08:27:52.804Z,1001.92
2022-11-15T08:28:52.802Z,1001.90
2022-11-15T08:29:58.276Z,1001.81
2022-11-15T08:30:53.792Z,1001.89
2022-11-15T08:31:52.773Z,1001.91
2022-11-15T08:32:52.732Z,1001.93
2022-11-15T08:33:52.733Z,1001.90
2022-11-15T08:34:52.713Z,1001.94
2022-11-15T08:35:52.750Z,1001.95
2022-11-15T08:36:52.692Z,1001.94
2022-11-15T08:37:52.733Z,1001.91
2022-11-15T08:38:52.669Z,1002.00
2022-11-15T08:39:52.661Z,1001.96
2022-11-15T08:40:52.642Z,1001.96
2022-11-15T08:41:52.838Z,1001.99
2022-11-15T08:42:52.622Z,1001.94
2022-11-15T08:43:52.611Z,1001.94
2022-11-15T08:44:52.630Z,1001.96
2022-11-15T08:45:52.865Z,1001.97
2022-11-15T08:46:52.581Z,1001.97
2022-11-15T08:47:54.380Z,1001.92
2022-11-15T08:48:52.562Z,1001.88
2022-11-15T08:49:52.592Z,1001.90
2022-11-15T08:50:52.543Z,1001.86
2022-11-15T08:51:54.251Z,1001.82
2022-11-15T08:52:52.529Z,1001.84
2022-11-15T08:53:52.503Z,1001.85
2022-11-15T08:54:52.499Z,1001.81
2022-11-15T08:55:52.490Z,1001.80
2022-11-15T08:56:52.471Z,1001.84
2022-11-15T08:57:52.581Z,1001.78
2022-11-15T08:58:52.452Z,1001.82
2022-11-15T08:59:52.462Z,1001.76
2022-11-15T09:00:52.436Z,1001.79
2022-11-15T09:01:52.555Z,1001.84
2022-11-15T09:02:52.442Z,1001.81
2022-11-15T09:03:52.434Z,1001.81
2022-11-15T09:04:52.404Z,1001.81
2022-11-15T09:05:52.371Z,1001.75
2022-11-15T09:06:52.464Z,1001.84
2022-11-15T09:07:52.429Z,1001.86
2022-11-15T09:08:52.467Z,1001.77
2022-11-15T09:09:52.334Z,1001.81
2022-11-15T09:10:52.322Z,1001.76
2022-11-15T09:11:52.353Z,1001.74
2022-11-15T09:12:52.313Z,1001.70
2022-11-15T09:13:52.283Z,1001.77
2022-11-15T09:14:52.283Z,1001.73
2022-11-15T09:15:52.342Z,1001.76
2022-11-15T09:16:52.262Z,1001.68
2022-11-15T09:17:52.261Z,1001.75
2022-11-15T09:18:52.261Z,1001.72
2022-11-15T09:19:52.248Z,1001.75
2022-11-15T09:20:52.211Z,1001.74
2022-11-15T09:21:52.202Z,1001.76
2022-11-15T09:22:52.191Z,1001.75
2022-11-15T09:23:52.179Z,1001.71
2022-11-15T09:24:52.191Z,1001.65
2022-11-15T09:25:52.160Z,1001.68
2022-11-15T09:26:52.163Z,1001.73
2022-11-15T09:27:52.130Z,1001.66
2022-11-15T09:28:52.152Z,1001.64
2022-11-15T09:29:52.141Z,1001.71
2022-11-15T09:30:52.180Z,1001.69
2022-11-15T09:31:52.095Z,1001.64
2022-11-15T09:32:52.092Z,1001.62
2022-11-15T09:33:52.082Z,1001.66
2022-11-15T09:34:52.061Z,1001.61
2022-11-15T09:35:52.071Z,1001.65
2022-11-15T09:36:52.048Z,1001.63
2022-11-15T09:37:56.174Z,1001.66
2022-11-15T09:38:52.022Z,1001.62
2022-11-15T09:39:52.012Z,1001.69
2022-11-15T09:40:52.001Z,1001.67
2022-11-15T09:41:52.013Z,1001.71
2022-11-15T09:42:51.980Z,1001.65
2022-11-15T09:43:51.964Z,1001.69
2022-11-15T09:44:51.952Z,1001.71
2022-11-15T09:45:51.942Z,1001.63
2022-11-15T09:46:52.103Z,1001.70
2022-11-15T09:47:51.949Z,1001.63
2022-11-15T09:48:51.914Z,1001.65
2022-11-15T09:49:56.598Z,1001.71
2022-11-15T09:50:52.890Z,1001.63
2022-11-15T09:51:51.879Z,1001.60
2022-11-15T09:52:55.275Z,1001.57
2022-11-15T09:54:54.721Z,1001.63
2022-11-15T09:55:51.831Z,1001.62
2022-11-15T09:56:51.830Z,1001.60
2022-11-15T09:57:52.117Z,1001.63
2022-11-15T09:58:51.801Z,1001.58
2022-11-15T09:59:51.789Z,1001.63
2022-11-15T10:00:51.779Z,1001.53
2022-11-15T10:01:51.996Z,1001.54
2022-11-15T10:02:51.760Z,1001.55
2022-11-15T10:03:51.740Z,1001.48
2022-11-15T10:04:52.229Z,1001.45
2022-11-15T10:05:51.733Z,1001.50
2022-11-15T10:06:51.767Z,1001.43
2022-11-15T10:07:51.701Z,1001.43
2022-11-15T10:08:51.699Z,1001.37
2022-11-15T10:09:51.700Z,1001.40
2022-11-15T10:11:04.932Z,1001.39
2022-11-15T10:11:52.651Z,1001.36
2022-11-15T10:12:51.650Z,1001.39
2022-11-15T10:13:51.642Z,1001.31
2022-11-15T10:14:54.611Z,1001.28
2022-11-15T10:15:51.840Z,1001.31
2022-11-15T10:16:51.610Z,1001.27
2022-11-15T10:17:51.597Z,1001.25
2022-11-15T10:18:51.581Z,1001.23
2022-11-15T10:19:51.572Z,1001.26
2022-11-15T10:20:51.955Z,1001.22
2022-11-15T10:21:51.590Z,1001.21
2022-11-15T10:22:51.540Z,1001.16
2022-11-15T10:23:51.519Z,1001.13
2022-11-15T10:24:51.770Z,1001.10
2022-11-15T10:25:51.500Z,1001.09
2022-11-15T10:26:51.750Z,1001.02
2022-11-15T10:27:51.480Z,1001.09
2022-11-15T10:28:51.471Z,1001.04
2022-11-15T10:29:51.477Z,1001.07
2022-11-15T10:30:51.469Z,1000.99
2022-11-15T10:31:51.490Z,1001.08
2022-11-15T10:32:51.951Z,1001.06
2022-11-15T10:33:51.411Z,1001.06
2022-11-15T10:34:51.414Z,1001.07
2022-11-15T10:35:51.400Z,1001.01
2022-11-15T10:36:51.389Z,1001.03
2022-11-15T10:37:51.372Z,1000.96
2022-11-15T10:38:51.479Z,1001.00
2022-11-15T10:39:51.409Z,1000.93
2022-11-15T10:40:51.339Z,1000.91
2022-11-15T10:41:51.326Z,1000.92
2022-11-15T10:42:51.320Z,1000.98
2022-11-15T10:43:51.300Z,1000.94
2022-11-15T10:44:51.297Z,1000.90
2022-11-15T10:45:51.309Z,1000.96
2022-11-15T10:46:51.269Z,1000.93
2022-11-15T10:47:51.280Z,1000.95
2022-11-15T10:48:51.260Z,1000.87
2022-11-15T10:49:51.242Z,1000.92
2022-11-15T10:50:51.237Z,1000.86
2022-11-15T10:51:51.210Z,1000.88
2022-11-15T10:52:51.217Z,1000.89
2022-11-15T10:53:51.229Z,1000.82
2022-11-15T10:54:51.190Z,1000.82
2022-11-15T10:55:51.169Z,1000.89
2022-11-15T10:56:51.159Z,1000.87
2022-11-15T10:57:51.150Z,1000.83
2022-11-15T10:58:51.138Z,1000.83
2022-11-15T10:59:51.177Z,1000.85
2022-11-15T11:00:51.160Z,1000.78
2022-11-15T11:01:51.109Z,1000.76
2022-11-15T11:02:51.287Z,1000.75
2022-11-15T11:03:51.090Z,1000.77
2022-11-15T11:04:51.080Z,1000.80
2022-11-15T11:05:51.078Z,1000.73
2022-11-15T11:06:51.065Z,1000.70
2022-11-15T11:07:51.039Z,1000.74
2022-11-15T11:08:51.279Z,1000.70
2022-11-15T11:09:51.018Z,1000.70
2022-11-15T11:10:52.864Z,1000.71
2022-11-15T11:11:52.705Z,1000.60
2022-11-15T11:12:50.997Z,1000.68
2022-11-15T11:13:51.228Z,1000.68
2022-11-15T11:14:50.972Z,1000.60
2022-11-15T11:15:50.960Z,1000.69
2022-11-15T11:16:50.958Z,1000.65
2022-11-15T11:17:50.929Z,1000.71
2022-11-15T11:18:50.950Z,1000.68
2022-11-15T11:19:50.919Z,1000.67
2022-11-15T11:20:50.910Z,1000.64
2022-11-15T11:21:50.890Z,1000.57
2022-11-15T11:22:50.890Z,1000.63
2022-11-15T11:23:50.869Z,1000.57
2022-11-15T11:24:50.886Z,1000.59
2022-11-15T11:25:50.859Z,1000.59
2022-11-15T11:26:55.807Z,1000.52
2022-11-15T11:27:51.818Z,1000.55
2022-11-15T11:28:50.818Z,1000.52
2022-11-15T11:29:50.836Z,1000.52
2022-11-15T11:30:50.789Z,1000.53
2022-11-15T11:31:50.785Z,1000.47
2022-11-15T11:32:54.997Z,1000.52
2022-11-15T11:33:50.758Z,1000.48
2022-11-15T11:34:50.748Z,1000.46
2022-11-15T11:35:51.258Z,1000.41
2022-11-15T11:36:50.722Z,1000.41
2022-11-15T11:37:50.708Z,1000.38
2022-11-15T11:38:50.712Z,1000.35
2022-11-15T11:39:50.687Z,1000.32
2022-11-15T11:40:50.745Z,1000.34
2022-11-15T11:41:50.678Z,1000.31
2022-11-15T11:42:50.678Z,1000.20
2022-11-15T11:43:50.687Z,1000.30
2022-11-15T11:44:50.642Z,1000.22
2022-11-15T11:45:50.645Z,1000.21
2022-11-15T11:46:50.650Z,1000.24
2022-11-15T11:47:50.597Z,1000.22
2022-11-15T11:48:50.597Z,1000.16
2022-11-15T11:49:50.579Z,1000.16
2022-11-15T11:50:50.577Z,1000.14
2022-11-15T11:51:50.768Z,1000.11
2022-11-15T11:52:50.588Z,1000.15
2022-11-15T11:53:50.539Z,1000.18
2022-11-15T11:54:50.529Z,1000.17
2022-11-15T11:55:50.539Z,1000.16
2022-11-15T11:56:50.525Z,1000.20
2022-11-15T11:57:50.518Z,1000.19
2022-11-15T11:58:50.629Z,1000.16
2022-11-15T11:59:50.473Z,1000.19
2022-11-15T12:00:50.458Z,1000.11
2022-11-15T12:01:50.642Z,1000.18
2022-11-15T12:02:50.607Z,1000.12
2022-11-15T12:03:50.467Z,1000.16
2022-11-15T12:04:50.417Z,1000.19
2022-11-15T12:05:50.398Z,1000.12
2022-11-15T12:06:50.506Z,1000.15